sensor_id;sensor_type;location;lat;lon;timestamp;temperature;humidity
24085;DHT22;12268;52.110;5.548;2023-03-04T00:01:19;10.60;99.90
24085;DHT22;12268;52.110;5.548;2023-03-04T00:03:45;10.70;99.90
24085;DHT22;12268;52.110;5.548;2023-03-04T00:06:10;10.70;99.90
24085;DHT22;12268;52.110;5.548;2023-03-04T00:08:36;10.70;99.90
24085;DHT22;12268;52.110;5.548;2023-03-04T00:11:02;10.60;99.90
24085;DHT22;12268;52.110;5.548;2023-03-04T00:13:28;10.50;99.90
24085;DHT22;12268;52.110;5.548;2023-03-04T00:15:53;10.60;99.90
24085;DHT22;12268;52.110;5.548;2023-03-04T00:18:19;10.50;99.90
24085;DHT22;12268;52.110;5.548;2023-03-04T00:20:45;10.60;99.90
24085;DHT22;12268;52.110;5.548;2023-03-04T00:23:11;10.50;99.90
24085;DHT22;12268;52.110;5.548;2023-03-04T00:25:36;10.50;99.90
24085;DHT22;12268;52.110;5.548;2023-03-04T00:28:02;10.70;99.90
24085;DHT22;12268;52.110;5.548;2023-03-04T00:30:28;10.70;99.90
24085;DHT22;12268;52.110;5.548;2023-03-04T00:32:53;10.80;99.90
24085;DHT22;12268;52.110;5.548;2023-03-04T00:35:19;10.70;99.90
24085;DHT22;12268;52.110;5.548;2023-03-04T00:37:44;10.70;99.90
24085;DHT22;12268;52.110;5.548;2023-03-04T00:40:10;10.50;99.90
24085;DHT22;12268;52.110;5.548;2023-03-04T00:42:36;10.40;99.90
24085;DHT22;12268;52.110;5.548;2023-03-04T00:45:02;10.50;99.90
24085;DHT22;12268;52.110;5.548;2023-03-04T00:47:27;10.50;99.90
24085;DHT22;12268;52.110;5.548;2023-03-04T00:49:53;10.50;99.90
24085;DHT22;12268;52.110;5.548;2023-03-04T00:52:18;10.50;99.90
24085;DHT22;12268;52.110;5.548;2023-03-04T00:54:44;10.40;99.90
24085;DHT22;12268;52.110;5.548;2023-03-04T00:57:09;10.70;99.90
24085;DHT22;12268;52.110;5.548;2023-03-04T00:59:35;10.60;99.90
24085;DHT22;12268;52.110;5.548;2023-03-04T01:02:01;10.30;99.90
24085;DHT22;12268;52.110;5.548;2023-03-04T01:04:26;10.00;99.90
24085;DHT22;12268;52.110;5.548;2023-03-04T01:06:52;10.00;99.90
24085;DHT22;12268;52.110;5.548;2023-03-04T01:09:17;10.10;99.90
24085;DHT22;12268;52.110;5.548;2023-03-04T01:11:43;10.30;99.90
24085;DHT22;12268;52.110;5.548;2023-03-04T01:14:08;10.30;99.90
24085;DHT22;12268;52.110;5.548;2023-03-04T01:16:34;10.50;99.90
24085;DHT22;12268;52.110;5.548;2023-03-04T01:18:59;10.60;99.90
24085;DHT22;12268;52.110;5.548;2023-03-04T01:21:25;10.60;99.90
24085;DHT22;12268;52.110;5.548;2023-03-04T01:23:51;10.50;99.90
24085;DHT22;12268;52.110;5.548;2023-03-04T01:26:16;10.40;99.90
24085;DHT22;12268;52.110;5.548;2023-03-04T01:28:42;10.40;99.90
24085;DHT22;12268;52.110;5.548;2023-03-04T01:31:07;10.30;99.90
24085;DHT22;12268;52.110;5.548;2023-03-04T01:33:33;10.40;99.90
24085;DHT22;12268;52.110;5.548;2023-03-04T01:35:59;10.10;99.90
24085;DHT22;12268;52.110;5.548;2023-03-04T01:38:24;10.10;99.90
24085;DHT22;12268;52.110;5.548;2023-03-04T01:40:50;10.30;99.90
24085;DHT22;12268;52.110;5.548;2023-03-04T01:43:24;10.30;99.90
24085;DHT22;12268;52.110;5.548;2023-03-04T01:45:52;10.40;99.90
24085;DHT22;12268;52.110;5.548;2023-03-04T01:48:23;10.30;99.90
24085;DHT22;12268;52.110;5.548;2023-03-04T01:50:49;10.20;99.90
24085;DHT22;12268;52.110;5.548;2023-03-04T01:53:26;10.10;99.90
24085;DHT22;12268;52.110;5.548;2023-03-04T01:55:54;10.10;99.90
24085;DHT22;12268;52.110;5.548;2023-03-04T01:58:24;10.10;99.90
24085;DHT22;12268;52.110;5.548;2023-03-04T02:00:50;10.10;99.90
24085;DHT22;12268;52.110;5.548;2023-03-04T02:03:17;10.10;99.90
24085;DHT22;12268;52.110;5.548;2023-03-04T02:05:47;10.10;99.90
24085;DHT22;12268;52.110;5.548;2023-03-04T02:08:13;10.10;99.90
24085;DHT22;12268;52.110;5.548;2023-03-04T02:10:41;10.20;99.90
24085;DHT22;12268;52.110;5.548;2023-03-04T02:13:07;10.40;99.90
24085;DHT22;12268;52.110;5.548;2023-03-04T02:15:33;10.50;99.90
24085;DHT22;12268;52.110;5.548;2023-03-04T02:18:15;10.40;99.90
24085;DHT22;12268;52.110;5.548;2023-03-04T02:20:50;10.40;99.90
24085;DHT22;12268;52.110;5.548;2023-03-04T02:26:19;10.60;99.90
24085;DHT22;12268;52.110;5.548;2023-03-04T02:28:46;10.40;99.90
24085;DHT22;12268;52.110;5.548;2023-03-04T02:31:37;10.20;99.90
24085;DHT22;12268;52.110;5.548;2023-03-04T02:34:20;10.00;99.90
24085;DHT22;12268;52.110;5.548;2023-03-04T02:36:47;9.90;99.90
24085;DHT22;12268;52.110;5.548;2023-03-04T02:41:48;9.60;99.90
24085;DHT22;12268;52.110;5.548;2023-03-04T02:44:26;9.60;99.90
24085;DHT22;12268;52.110;5.548;2023-03-04T02:46:52;9.70;99.90
24085;DHT22;12268;52.110;5.548;2023-03-04T02:49:19;9.80;99.90
24085;DHT22;12268;52.110;5.548;2023-03-04T02:51:45;9.80;99.90
24085;DHT22;12268;52.110;5.548;2023-03-04T02:54:19;9.90;99.90
24085;DHT22;12268;52.110;5.548;2023-03-04T02:56:46;10.00;99.90
24085;DHT22;12268;52.110;5.548;2023-03-04T02:59:12;9.90;99.90
24085;DHT22;12268;52.110;5.548;2023-03-04T03:01:38;9.80;99.90
24085;DHT22;12268;52.110;5.548;2023-03-04T03:04:03;9.80;99.90
24085;DHT22;12268;52.110;5.548;2023-03-04T03:06:29;9.70;99.90
24085;DHT22;12268;52.110;5.548;2023-03-04T03:08:54;9.60;99.90
24085;DHT22;12268;52.110;5.548;2023-03-04T03:11:20;9.50;99.90
24085;DHT22;12268;52.110;5.548;2023-03-04T03:13:45;9.40;99.90
24085;DHT22;12268;52.110;5.548;2023-03-04T03:16:11;9.60;99.90
24085;DHT22;12268;52.110;5.548;2023-03-04T03:18:36;9.50;99.90
24085;DHT22;12268;52.110;5.548;2023-03-04T03:21:02;9.50;99.90
24085;DHT22;12268;52.110;5.548;2023-03-04T03:23:28;9.70;99.90
24085;DHT22;12268;52.110;5.548;2023-03-04T03:25:53;9.70;99.90
24085;DHT22;12268;52.110;5.548;2023-03-04T03:28:19;9.90;99.90
24085;DHT22;12268;52.110;5.548;2023-03-04T03:30:44;9.90;99.90
24085;DHT22;12268;52.110;5.548;2023-03-04T03:33:10;10.10;99.90
24085;DHT22;12268;52.110;5.548;2023-03-04T03:35:35;10.20;99.90
24085;DHT22;12268;52.110;5.548;2023-03-04T03:38:01;10.20;99.90
24085;DHT22;12268;52.110;5.548;2023-03-04T03:40:27;10.20;99.90
24085;DHT22;12268;52.110;5.548;2023-03-04T03:42:52;10.10;99.90
24085;DHT22;12268;52.110;5.548;2023-03-04T03:45:18;10.30;99.90
24085;DHT22;12268;52.110;5.548;2023-03-04T03:47:43;10.40;99.90
24085;DHT22;12268;52.110;5.548;2023-03-04T03:50:09;10.30;99.90
24085;DHT22;12268;52.110;5.548;2023-03-04T03:52:35;10.10;99.90
24085;DHT22;12268;52.110;5.548;2023-03-04T03:55:00;10.00;99.90
24085;DHT22;12268;52.110;5.548;2023-03-04T03:57:27;10.20;99.90
24085;DHT22;12268;52.110;5.548;2023-03-04T03:59:53;10.10;99.90
24085;DHT22;12268;52.110;5.548;2023-03-04T04:02:18;10.20;99.90
24085;DHT22;12268;52.110;5.548;2023-03-04T04:04:44;10.00;99.90
24085;DHT22;12268;52.110;5.548;2023-03-04T04:07:09;9.90;99.90
24085;DHT22;12268;52.110;5.548;2023-03-04T04:09:35;9.80;99.90
24085;DHT22;12268;52.110;5.548;2023-03-04T04:12:00;10.10;99.90
24085;DHT22;12268;52.110;5.548;2023-03-04T04:14:26;10.10;99.90
24085;DHT22;12268;52.110;5.548;2023-03-04T04:16:51;10.00;99.90
24085;DHT22;12268;52.110;5.548;2023-03-04T04:19:18;9.90;99.90
24085;DHT22;12268;52.110;5.548;2023-03-04T04:21:44;9.90;99.90
24085;DHT22;12268;52.110;5.548;2023-03-04T04:24:10;9.80;99.90
24085;DHT22;12268;52.110;5.548;2023-03-04T04:26:35;9.70;99.90
24085;DHT22;12268;52.110;5.548;2023-03-04T04:29:01;9.70;99.90
24085;DHT22;12268;52.110;5.548;2023-03-04T04:31:26;9.60;99.90
24085;DHT22;12268;52.110;5.548;2023-03-04T04:33:52;9.70;99.90
24085;DHT22;12268;52.110;5.548;2023-03-04T04:36:17;9.80;99.90
24085;DHT22;12268;52.110;5.548;2023-03-04T04:38:43;9.90;99.90
24085;DHT22;12268;52.110;5.548;2023-03-04T04:41:20;9.80;99.90
24085;DHT22;12268;52.110;5.548;2023-03-04T04:43:46;10.00;99.90
24085;DHT22;12268;52.110;5.548;2023-03-04T05:56:12;10.00;99.90
24085;DHT22;12268;52.110;5.548;2023-03-04T05:58:38;10.10;99.90
24085;DHT22;12268;52.110;5.548;2023-03-04T06:01:04;10.30;99.90
24085;DHT22;12268;52.110;5.548;2023-03-04T06:03:30;10.10;99.90
24085;DHT22;12268;52.110;5.548;2023-03-04T06:05:56;10.10;99.90
24085;DHT22;12268;52.110;5.548;2023-03-04T06:08:21;10.00;99.90
24085;DHT22;12268;52.110;5.548;2023-03-04T06:10:47;10.00;99.90
24085;DHT22;12268;52.110;5.548;2023-03-04T06:13:16;10.00;99.90
24085;DHT22;12268;52.110;5.548;2023-03-04T06:41:37;9.80;99.90
24085;DHT22;12268;52.110;5.548;2023-03-04T06:44:03;9.60;99.90
24085;DHT22;12268;52.110;5.548;2023-03-04T06:46:28;9.50;99.90
24085;DHT22;12268;52.110;5.548;2023-03-04T06:48:54;9.50;99.90
24085;DHT22;12268;52.110;5.548;2023-03-04T06:51:20;9.60;99.90
24085;DHT22;12268;52.110;5.548;2023-03-04T06:53:45;9.50;99.90
24085;DHT22;12268;52.110;5.548;2023-03-04T07:16:54;9.50;99.90
24085;DHT22;12268;52.110;5.548;2023-03-04T07:19:19;9.60;99.90
24085;DHT22;12268;52.110;5.548;2023-03-04T07:21:45;9.70;99.90
24085;DHT22;12268;52.110;5.548;2023-03-04T07:24:11;9.60;99.90
24085;DHT22;12268;52.110;5.548;2023-03-04T07:26:37;9.50;99.90
24085;DHT22;12268;52.110;5.548;2023-03-04T07:29:03;9.60;99.90
24085;DHT22;12268;52.110;5.548;2023-03-04T07:31:32;9.70;99.90
24085;DHT22;12268;52.110;5.548;2023-03-04T07:34:00;9.60;99.90
24085;DHT22;12268;52.110;5.548;2023-03-04T07:46:47;10.40;99.90
24085;DHT22;12268;52.110;5.548;2023-03-04T07:49:13;10.40;99.90
24085;DHT22;12268;52.110;5.548;2023-03-04T07:51:38;10.40;99.90
24085;DHT22;12268;52.110;5.548;2023-03-04T07:54:04;10.30;99.90
24085;DHT22;12268;52.110;5.548;2023-03-04T07:56:32;10.30;99.90
24085;DHT22;12268;52.110;5.548;2023-03-04T07:58:59;10.30;99.90
24085;DHT22;12268;52.110;5.548;2023-03-04T08:01:30;10.40;99.90
24085;DHT22;12268;52.110;5.548;2023-03-04T08:03:56;10.40;99.90
24085;DHT22;12268;52.110;5.548;2023-03-04T08:06:22;10.50;99.90
24085;DHT22;12268;52.110;5.548;2023-03-04T08:08:49;10.50;99.90
24085;DHT22;12268;52.110;5.548;2023-03-04T08:11:20;10.60;99.90
24085;DHT22;12268;52.110;5.548;2023-03-04T08:13:46;10.60;99.90
24085;DHT22;12268;52.110;5.548;2023-03-04T08:16:17;10.60;99.90
24085;DHT22;12268;52.110;5.548;2023-03-04T08:18:48;10.60;99.90
24085;DHT22;12268;52.110;5.548;2023-03-04T08:21:15;10.70;99.90
24085;DHT22;12268;52.110;5.548;2023-03-04T08:23:41;10.80;99.90
24085;DHT22;12268;52.110;5.548;2023-03-04T08:26:34;10.90;99.90
24085;DHT22;12268;52.110;5.548;2023-03-04T08:29:01;11.10;99.90
24085;DHT22;12268;52.110;5.548;2023-03-04T08:31:27;11.20;99.90
24085;DHT22;12268;52.110;5.548;2023-03-04T08:33:53;11.30;99.90
24085;DHT22;12268;52.110;5.548;2023-03-04T08:36:19;11.00;99.90
24085;DHT22;12268;52.110;5.548;2023-03-04T08:38:45;11.00;99.90
24085;DHT22;12268;52.110;5.548;2023-03-04T08:41:11;11.00;99.90
24085;DHT22;12268;52.110;5.548;2023-03-04T08:43:37;11.00;99.90
24085;DHT22;12268;52.110;5.548;2023-03-04T08:46:02;11.10;99.90
24085;DHT22;12268;52.110;5.548;2023-03-04T08:48:28;11.30;99.90
24085;DHT22;12268;52.110;5.548;2023-03-04T08:50:54;11.40;99.90
24085;DHT22;12268;52.110;5.548;2023-03-04T08:53:20;11.10;99.90
24085;DHT22;12268;52.110;5.548;2023-03-04T08:55:47;11.00;99.90
24085;DHT22;12268;52.110;5.548;2023-03-04T08:58:13;10.70;99.90
24085;DHT22;12268;52.110;5.548;2023-03-04T09:00:41;10.50;99.90
24085;DHT22;12268;52.110;5.548;2023-03-04T09:03:07;10.60;99.90
24085;DHT22;12268;52.110;5.548;2023-03-04T09:05:33;10.60;99.90
24085;DHT22;12268;52.110;5.548;2023-03-04T09:07:58;10.70;99.90
24085;DHT22;12268;52.110;5.548;2023-03-04T09:10:24;10.60;99.90
24085;DHT22;12268;52.110;5.548;2023-03-04T09:12:50;10.50;99.90
24085;DHT22;12268;52.110;5.548;2023-03-04T09:15:16;10.60;99.90
24085;DHT22;12268;52.110;5.548;2023-03-04T09:17:42;10.90;99.90
24085;DHT22;12268;52.110;5.548;2023-03-04T09:20:08;11.00;99.90
24085;DHT22;12268;52.110;5.548;2023-03-04T09:22:36;10.90;99.90
24085;DHT22;12268;52.110;5.548;2023-03-04T09:25:02;10.80;99.90
24085;DHT22;12268;52.110;5.548;2023-03-04T09:27:27;10.90;99.90
24085;DHT22;12268;52.110;5.548;2023-03-04T09:29:53;11.10;99.90
24085;DHT22;12268;52.110;5.548;2023-03-04T09:32:18;11.20;99.90
24085;DHT22;12268;52.110;5.548;2023-03-04T09:34:44;11.20;99.90
24085;DHT22;12268;52.110;5.548;2023-03-04T09:37:09;11.50;99.90
24085;DHT22;12268;52.110;5.548;2023-03-04T09:39:35;11.70;99.90
24085;DHT22;12268;52.110;5.548;2023-03-04T09:42:01;11.70;99.90
24085;DHT22;12268;52.110;5.548;2023-03-04T09:44:42;11.80;99.90
24085;DHT22;12268;52.110;5.548;2023-03-04T09:47:18;12.00;99.90
24085;DHT22;12268;52.110;5.548;2023-03-04T09:50:06;12.00;99.90
24085;DHT22;12268;52.110;5.548;2023-03-04T09:55:27;12.30;99.90
24085;DHT22;12268;52.110;5.548;2023-03-04T10:00:55;12.40;99.90
24085;DHT22;12268;52.110;5.548;2023-03-04T10:06:16;12.20;99.90
24085;DHT22;12268;52.110;5.548;2023-03-04T10:08:55;12.20;99.90
24085;DHT22;12268;52.110;5.548;2023-03-04T10:11:34;12.20;99.90
24085;DHT22;12268;52.110;5.548;2023-03-04T10:17:16;12.10;99.90
24085;DHT22;12268;52.110;5.548;2023-03-04T10:22:47;11.90;99.90
24085;DHT22;12268;52.110;5.548;2023-03-04T10:25:22;11.90;99.90
24085;DHT22;12268;52.110;5.548;2023-03-04T10:27:55;11.80;99.90
24085;DHT22;12268;52.110;5.548;2023-03-04T10:33:24;11.60;99.90
24085;DHT22;12268;52.110;5.548;2023-03-04T10:36:01;11.30;99.90
24085;DHT22;12268;52.110;5.548;2023-03-04T10:38:31;11.40;99.90
24085;DHT22;12268;52.110;5.548;2023-03-04T10:40:57;11.40;99.90
24085;DHT22;12268;52.110;5.548;2023-03-04T10:43:23;11.60;99.90
24085;DHT22;12268;52.110;5.548;2023-03-04T10:45:54;12.00;99.90
24085;DHT22;12268;52.110;5.548;2023-03-04T10:48:24;12.80;99.90
24085;DHT22;12268;52.110;5.548;2023-03-04T10:50:50;13.80;99.90
24085;DHT22;12268;52.110;5.548;2023-03-04T10:53:35;14.20;99.90
24085;DHT22;12268;52.110;5.548;2023-03-04T10:56:03;14.00;99.90
24085;DHT22;12268;52.110;5.548;2023-03-04T10:58:29;13.80;99.90
24085;DHT22;12268;52.110;5.548;2023-03-04T11:01:05;13.80;99.90
24085;DHT22;12268;52.110;5.548;2023-03-04T11:03:35;14.50;99.90
24085;DHT22;12268;52.110;5.548;2023-03-04T11:06:18;15.70;99.90
24085;DHT22;12268;52.110;5.548;2023-03-04T11:08:55;18.00;99.90
24085;DHT22;12268;52.110;5.548;2023-03-04T11:11:38;19.70;99.90
24085;DHT22;12268;52.110;5.548;2023-03-04T11:14:35;18.90;99.90
24085;DHT22;12268;52.110;5.548;2023-03-04T11:20:27;16.60;99.90
24085;DHT22;12268;52.110;5.548;2023-03-04T11:22:56;15.30;99.90
24085;DHT22;12268;52.110;5.548;2023-03-04T11:25:31;14.00;99.90
24085;DHT22;12268;52.110;5.548;2023-03-04T11:28:02;12.80;99.90
24085;DHT22;12268;52.110;5.548;2023-03-04T11:30:52;12.20;99.90
24085;DHT22;12268;52.110;5.548;2023-03-04T11:33:27;12.20;99.90
24085;DHT22;12268;52.110;5.548;2023-03-04T11:35:58;12.20;99.90
24085;DHT22;12268;52.110;5.548;2023-03-04T11:38:32;12.30;99.90
24085;DHT22;12268;52.110;5.548;2023-03-04T11:41:07;12.30;99.90
24085;DHT22;12268;52.110;5.548;2023-03-04T11:54:42;13.20;99.90
24085;DHT22;12268;52.110;5.548;2023-03-04T12:00:39;14.20;99.90
24085;DHT22;12268;52.110;5.548;2023-03-04T12:03:34;15.30;99.90
24085;DHT22;12268;52.110;5.548;2023-03-04T12:14:15;17.90;99.90
24085;DHT22;12268;52.110;5.548;2023-03-04T12:16:47;17.70;99.90
24085;DHT22;12268;52.110;5.548;2023-03-04T12:19:29;16.80;99.90
24085;DHT22;12268;52.110;5.548;2023-03-04T12:22:24;16.40;99.90
24085;DHT22;12268;52.110;5.548;2023-03-04T12:33:38;15.50;99.90
24085;DHT22;12268;52.110;5.548;2023-03-04T12:36:39;15.30;99.90
24085;DHT22;12268;52.110;5.548;2023-03-04T12:39:33;14.90;99.90
24085;DHT22;12268;52.110;5.548;2023-03-04T12:42:24;14.70;99.90
24085;DHT22;12268;52.110;5.548;2023-03-04T12:47:54;14.50;99.90
24085;DHT22;12268;52.110;5.548;2023-03-04T12:50:51;14.40;99.90
24085;DHT22;12268;52.110;5.548;2023-03-04T12:55:46;15.00;99.90
24085;DHT22;12268;52.110;5.548;2023-03-04T12:58:25;15.20;99.90
24085;DHT22;12268;52.110;5.548;2023-03-04T13:01:10;15.30;99.90
24085;DHT22;12268;52.110;5.548;2023-03-04T13:04:05;15.80;99.90
24085;DHT22;12268;52.110;5.548;2023-03-04T13:06:52;17.50;99.90
24085;DHT22;12268;52.110;5.548;2023-03-04T13:09:31;17.90;99.90
24085;DHT22;12268;52.110;5.548;2023-03-04T13:12:02;17.70;99.90
24085;DHT22;12268;52.110;5.548;2023-03-04T13:14:30;17.20;99.90
24085;DHT22;12268;52.110;5.548;2023-03-04T13:16:58;16.50;99.90
24085;DHT22;12268;52.110;5.548;2023-03-04T13:19:46;16.00;99.90
24085;DHT22;12268;52.110;5.548;2023-03-04T13:24:58;15.20;99.90
24085;DHT22;12268;52.110;5.548;2023-03-04T13:35:48;14.60;99.90
24085;DHT22;12268;52.110;5.548;2023-03-04T13:43:50;13.80;99.90
24085;DHT22;12268;52.110;5.548;2023-03-04T13:53:44;14.00;99.90
24085;DHT22;12268;52.110;5.548;2023-03-04T13:56:28;14.20;99.90
24085;DHT22;12268;52.110;5.548;2023-03-04T13:59:21;14.60;99.90
24085;DHT22;12268;52.110;5.548;2023-03-04T14:02:07;14.70;99.90
24085;DHT22;12268;52.110;5.548;2023-03-04T14:04:36;14.90;99.90
24085;DHT22;12268;52.110;5.548;2023-03-04T14:07:17;15.10;99.90
24085;DHT22;12268;52.110;5.548;2023-03-04T14:10:03;15.20;99.90
24085;DHT22;12268;52.110;5.548;2023-03-04T14:12:39;15.20;99.90
24085;DHT22;12268;52.110;5.548;2023-03-04T14:17:43;14.60;99.90
24085;DHT22;12268;52.110;5.548;2023-03-04T14:20:48;14.40;99.90
24085;DHT22;12268;52.110;5.548;2023-03-04T14:23:29;13.90;99.90
24085;DHT22;12268;52.110;5.548;2023-03-04T14:26:10;13.70;99.90
24085;DHT22;12268;52.110;5.548;2023-03-04T14:28:48;13.40;99.90
24085;DHT22;12268;52.110;5.548;2023-03-04T14:31:19;12.70;99.90
24085;DHT22;12268;52.110;5.548;2023-03-04T14:33:53;12.60;99.90
24085;DHT22;12268;52.110;5.548;2023-03-04T14:36:24;12.90;99.90
24085;DHT22;12268;52.110;5.548;2023-03-04T14:38:55;13.00;99.90
24085;DHT22;12268;52.110;5.548;2023-03-04T14:41:38;12.70;99.90
24085;DHT22;12268;52.110;5.548;2023-03-04T14:46:43;12.20;99.90
24085;DHT22;12268;52.110;5.548;2023-03-04T14:49:13;12.10;99.90
24085;DHT22;12268;52.110;5.548;2023-03-04T14:51:46;12.20;99.90
24085;DHT22;12268;52.110;5.548;2023-03-04T14:54:32;12.10;99.90
24085;DHT22;12268;52.110;5.548;2023-03-04T14:56:59;12.20;99.90
24085;DHT22;12268;52.110;5.548;2023-03-04T14:59:34;12.20;99.90
24085;DHT22;12268;52.110;5.548;2023-03-04T15:04:44;12.30;99.90
24085;DHT22;12268;52.110;5.548;2023-03-04T15:07:28;12.20;99.90
24085;DHT22;12268;52.110;5.548;2023-03-04T15:09:54;12.20;99.90
24085;DHT22;12268;52.110;5.548;2023-03-04T15:12:29;11.70;99.90
24085;DHT22;12268;52.110;5.548;2023-03-04T15:15:00;11.80;99.90
24085;DHT22;12268;52.110;5.548;2023-03-04T15:17:39;11.70;99.90
24085;DHT22;12268;52.110;5.548;2023-03-04T15:22:56;12.20;99.90
24085;DHT22;12268;52.110;5.548;2023-03-04T15:25:22;12.20;99.90
24085;DHT22;12268;52.110;5.548;2023-03-04T15:27:49;12.10;99.90
24085;DHT22;12268;52.110;5.548;2023-03-04T15:30:19;11.70;99.90
24085;DHT22;12268;52.110;5.548;2023-03-04T15:32:46;11.40;99.90
24085;DHT22;12268;52.110;5.548;2023-03-04T15:35:12;11.50;99.90
24085;DHT22;12268;52.110;5.548;2023-03-04T15:37:39;11.80;99.90
24085;DHT22;12268;52.110;5.548;2023-03-04T15:40:25;11.80;99.90
24085;DHT22;12268;52.110;5.548;2023-03-04T15:42:51;11.90;99.90
24085;DHT22;12268;52.110;5.548;2023-03-04T15:45:27;12.00;99.90
24085;DHT22;12268;52.110;5.548;2023-03-04T15:47:53;12.10;99.90
24085;DHT22;12268;52.110;5.548;2023-03-04T15:50:20;11.80;99.90
24085;DHT22;12268;52.110;5.548;2023-03-04T15:52:46;11.70;99.90
24085;DHT22;12268;52.110;5.548;2023-03-04T15:55:17;11.60;99.90
24085;DHT22;12268;52.110;5.548;2023-03-04T15:57:45;11.60;99.90
24085;DHT22;12268;52.110;5.548;2023-03-04T16:00:13;11.60;99.90
24085;DHT22;12268;52.110;5.548;2023-03-04T16:02:39;11.50;99.90
24085;DHT22;12268;52.110;5.548;2023-03-04T16:05:05;11.40;99.90
24085;DHT22;12268;52.110;5.548;2023-03-04T16:07:31;11.20;99.90
24085;DHT22;12268;52.110;5.548;2023-03-04T16:09:59;11.40;99.90
24085;DHT22;12268;52.110;5.548;2023-03-04T16:12:29;11.40;99.90
24085;DHT22;12268;52.110;5.548;2023-03-04T16:14:54;11.60;99.90
24085;DHT22;12268;52.110;5.548;2023-03-04T16:17:20;11.60;99.90
24085;DHT22;12268;52.110;5.548;2023-03-04T16:19:45;11.60;99.90
24085;DHT22;12268;52.110;5.548;2023-03-04T16:22:20;11.60;99.90
24085;DHT22;12268;52.110;5.548;2023-03-04T16:24:48;11.40;99.90
24085;DHT22;12268;52.110;5.548;2023-03-04T16:27:16;11.20;99.90
24085;DHT22;12268;52.110;5.548;2023-03-04T16:29:42;11.00;99.90
24085;DHT22;12268;52.110;5.548;2023-03-04T16:32:09;10.90;99.90
24085;DHT22;12268;52.110;5.548;2023-03-04T16:34:34;10.70;99.90
24085;DHT22;12268;52.110;5.548;2023-03-04T16:37:04;10.60;99.90
24085;DHT22;12268;52.110;5.548;2023-03-04T16:39:31;10.80;99.90
24085;DHT22;12268;52.110;5.548;2023-03-04T16:41:56;10.80;99.90
24085;DHT22;12268;52.110;5.548;2023-03-04T16:44:22;11.00;99.90
24085;DHT22;12268;52.110;5.548;2023-03-04T16:46:47;11.10;99.90
24085;DHT22;12268;52.110;5.548;2023-03-04T16:49:13;11.20;99.90
24085;DHT22;12268;52.110;5.548;2023-03-04T16:51:47;11.20;99.90
24085;DHT22;12268;52.110;5.548;2023-03-04T16:54:18;11.10;99.90
24085;DHT22;12268;52.110;5.548;2023-03-04T16:56:46;10.90;99.90
24085;DHT22;12268;52.110;5.548;2023-03-04T16:59:15;10.90;99.90
24085;DHT22;12268;52.110;5.548;2023-03-04T17:01:42;11.00;99.90
24085;DHT22;12268;52.110;5.548;2023-03-04T17:04:07;11.00;99.90
24085;DHT22;12268;52.110;5.548;2023-03-04T17:06:33;11.20;99.90
24085;DHT22;12268;52.110;5.548;2023-03-04T17:09:03;11.00;99.90
24085;DHT22;12268;52.110;5.548;2023-03-04T17:11:28;11.00;99.90
24085;DHT22;12268;52.110;5.548;2023-03-04T17:13:54;10.90;99.90
24085;DHT22;12268;52.110;5.548;2023-03-04T17:16:20;10.80;99.90
24085;DHT22;12268;52.110;5.548;2023-03-04T17:18:45;10.70;99.90
24085;DHT22;12268;52.110;5.548;2023-03-04T17:21:14;10.50;99.90
24085;DHT22;12268;52.110;5.548;2023-03-04T17:23:40;10.50;99.90
24085;DHT22;12268;52.110;5.548;2023-03-04T17:26:05;10.50;99.90
24085;DHT22;12268;52.110;5.548;2023-03-04T17:28:32;10.50;99.90
24085;DHT22;12268;52.110;5.548;2023-03-04T17:30:57;10.30;99.90
24085;DHT22;12268;52.110;5.548;2023-03-04T17:33:23;10.30;99.90
24085;DHT22;12268;52.110;5.548;2023-03-04T17:35:49;10.10;99.90
24085;DHT22;12268;52.110;5.548;2023-03-04T17:38:14;10.20;99.90
24085;DHT22;12268;52.110;5.548;2023-03-04T17:40:40;10.20;99.90
24085;DHT22;12268;52.110;5.548;2023-03-04T17:43:06;10.10;99.90
24085;DHT22;12268;52.110;5.548;2023-03-04T17:45:44;10.10;99.90
24085;DHT22;12268;52.110;5.548;2023-03-04T17:48:10;10.00;99.90
24085;DHT22;12268;52.110;5.548;2023-03-04T17:50:49;10.00;99.90
24085;DHT22;12268;52.110;5.548;2023-03-04T17:53:15;10.00;99.90
24085;DHT22;12268;52.110;5.548;2023-03-04T17:55:48;9.90;99.90
24085;DHT22;12268;52.110;5.548;2023-03-04T17:58:14;10.10;99.90
24085;DHT22;12268;52.110;5.548;2023-03-04T18:00:40;10.00;99.90
24085;DHT22;12268;52.110;5.548;2023-03-04T18:03:05;9.90;99.90
24085;DHT22;12268;52.110;5.548;2023-03-04T18:05:31;10.00;99.90
24085;DHT22;12268;52.110;5.548;2023-03-04T18:07:56;10.00;99.90
24085;DHT22;12268;52.110;5.548;2023-03-04T18:10:22;10.20;99.90
24085;DHT22;12268;52.110;5.548;2023-03-04T18:12:47;10.20;99.90
24085;DHT22;12268;52.110;5.548;2023-03-04T18:15:13;10.10;99.90
24085;DHT22;12268;52.110;5.548;2023-03-04T18:17:38;10.30;99.90
24085;DHT22;12268;52.110;5.548;2023-03-04T18:20:04;10.40;99.90
24085;DHT22;12268;52.110;5.548;2023-03-04T18:22:30;10.30;99.90
24085;DHT22;12268;52.110;5.548;2023-03-04T18:24:55;10.10;99.90
24085;DHT22;12268;52.110;5.548;2023-03-04T18:27:21;9.90;99.90
24085;DHT22;12268;52.110;5.548;2023-03-04T18:29:46;9.70;99.90
24085;DHT22;12268;52.110;5.548;2023-03-04T18:32:12;9.60;99.90
24085;DHT22;12268;52.110;5.548;2023-03-04T18:34:37;9.60;99.90
24085;DHT22;12268;52.110;5.548;2023-03-04T18:37:03;9.70;99.90
24085;DHT22;12268;52.110;5.548;2023-03-04T18:39:28;9.70;99.90
24085;DHT22;12268;52.110;5.548;2023-03-04T18:41:54;9.70;99.90
24085;DHT22;12268;52.110;5.548;2023-03-04T18:44:19;9.80;99.90
24085;DHT22;12268;52.110;5.548;2023-03-04T18:46:48;9.80;99.90
24085;DHT22;12268;52.110;5.548;2023-03-04T18:49:15;9.80;99.90
24085;DHT22;12268;52.110;5.548;2023-03-04T18:51:41;9.60;99.90
24085;DHT22;12268;52.110;5.548;2023-03-04T18:54:07;9.60;99.90
24085;DHT22;12268;52.110;5.548;2023-03-04T18:56:39;9.50;99.90
24085;DHT22;12268;52.110;5.548;2023-03-04T18:59:14;9.40;99.90
24085;DHT22;12268;52.110;5.548;2023-03-04T19:01:40;9.30;99.90
24085;DHT22;12268;52.110;5.548;2023-03-04T19:04:06;9.30;99.90
24085;DHT22;12268;52.110;5.548;2023-03-04T19:06:32;9.30;99.90
24085;DHT22;12268;52.110;5.548;2023-03-04T19:08:58;9.40;99.90
24085;DHT22;12268;52.110;5.548;2023-03-04T19:11:24;9.50;99.90
24085;DHT22;12268;52.110;5.548;2023-03-04T19:13:50;9.50;99.90
24085;DHT22;12268;52.110;5.548;2023-03-04T19:16:16;9.50;99.90
24085;DHT22;12268;52.110;5.548;2023-03-04T19:18:42;9.50;99.90
24085;DHT22;12268;52.110;5.548;2023-03-04T19:21:07;9.60;99.90
24085;DHT22;12268;52.110;5.548;2023-03-04T19:23:33;9.60;99.90
24085;DHT22;12268;52.110;5.548;2023-03-04T19:25:59;9.60;99.90
24085;DHT22;12268;52.110;5.548;2023-03-04T19:28:24;9.80;99.90
24085;DHT22;12268;52.110;5.548;2023-03-04T19:30:50;9.70;99.90
24085;DHT22;12268;52.110;5.548;2023-03-04T19:33:18;9.60;99.90